Time;durP1;ratioP1;P1;durP2;ratioP2;P2;SDS_P1;SDS_P2;PMS_P1;PMS_P2;Temp;Humidity;BMP_temperature;BMP_pressure;BME280_temperature;BME280_humidity;BME280_pressure;Samples;Min_cycle;Max_cycle;Signal;HPM_P1;HPM_P2
2022/10/30 00:01:59;;;;;;;;;;;;;;;21.31;69.14;97752.50;607143;233;64861;-72
2022/10/30 00:04:27;;;;;;;;;;;;;;;21.33;70.62;97755.73;607147;233;66502;-73
2022/10/30 00:06:55;;;;;;;;;;;;;;;21.32;69.78;97752.27;607197;233;64628;-73
2022/10/30 00:09:22;;;;;;;;;;;;;;;21.31;69.90;97758.69;607093;233;63785;-73
2022/10/30 00:11:50;;;;;;;;;;;;;;;21.32;70.28;97749.59;607125;233;67011;-73
2022/10/30 00:14:17;;;;;;;;;;;;;;;21.32;70.06;97751.47;607134;233;66612;-73
2022/10/30 00:16:45;;;;;;;;;;;;;;;21.31;70.08;97750.66;607114;233;62917;-72
2022/10/30 00:19:12;;;;;;;;;;;;;;;21.30;70.02;97751.70;607175;233;64529;-72
2022/10/30 00:21:40;;;;;;;;;;;;;;;21.30;69.95;97754.38;607164;233;65425;-72
2022/10/30 00:24:07;;;;;;;;;;;;;;;21.29;70.03;97747.44;607141;233;62765;-72
2022/10/30 00:26:35;;;;;;;;;;;;;;;21.29;70.42;97742.89;607159;233;66601;-72
2022/10/30 00:29:02;;;;;;;;;;;;;;;21.29;70.32;97742.08;607085;233;66630;-72
2022/10/30 00:31:30;;;;;;;;;;;;;;;21.29;70.05;97745.56;607125;233;66045;-72
2022/10/30 00:33:57;;;;;;;;;;;;;;;21.29;70.23;97740.21;607159;233;64508;-73
2022/10/30 00:36:25;;;;;;;;;;;;;;;21.28;69.67;97737.81;607117;233;64546;-73
2022/10/30 00:38:52;;;;;;;;;;;;;;;21.27;70.02;97731.63;607113;233;63822;-73
2022/10/30 00:41:21;;;;;;;;;;;;;;;21.27;70.81;97730.83;607133;233;67319;-73
2022/10/30 00:43:49;;;;;;;;;;;;;;;21.29;70.17;97731.39;607108;233;66726;-72
2022/10/30 00:46:21;;;;;;;;;;;;;;;21.27;70.60;97720.14;607179;233;65988;-72
2022/10/30 00:48:50;;;;;;;;;;;;;;;21.27;70.36;97720.14;607093;233;64532;-74
2022/10/30 00:51:18;;;;;;;;;;;;;;;21.26;70.00;97713.19;607116;233;66240;-73
2022/10/30 00:53:47;;;;;;;;;;;;;;;21.25;69.62;97717.73;607136;233;63053;-74
2022/10/30 00:56:15;;;;;;;;;;;;;;;21.25;69.75;97698.20;607093;233;66600;-73
2022/10/30 00:58:44;;;;;;;;;;;;;;;21.25;69.77;97695.52;607157;233;66951;-73
2022/10/30 01:01:13;;;;;;;;;;;;;;;21.25;70.14;97690.17;607069;233;63708;-73
2022/10/30 01:03:41;;;;;;;;;;;;;;;21.24;70.40;97691.25;607051;233;66901;-73
2022/10/30 01:06:10;;;;;;;;;;;;;;;21.25;70.94;97692.84;607117;233;66610;-73
2022/10/30 01:08:38;;;;;;;;;;;;;;;21.23;69.72;97686.98;607091;233;62833;-73
2022/10/30 01:11:07;;;;;;;;;;;;;;;21.23;70.64;97685.10;607106;233;67361;-73
2022/10/30 01:13:36;;;;;;;;;;;;;;;21.24;70.55;97688.58;607159;233;64543;-73
2022/10/30 01:16:11;;;;;;;;;;;;;;;21.23;69.67;97685.10;607118;233;64998;-73
2022/10/30 01:18:43;;;;;;;;;;;;;;;21.22;69.69;97683.47;607108;233;66587;-73
2022/10/30 01:21:18;;;;;;;;;;;;;;;21.21;69.91;97683.75;606953;233;66943;-72
2022/10/30 01:23:49;;;;;;;;;;;;;;;21.21;69.48;97681.88;606294;233;65090;-73
2022/10/30 01:26:25;;;;;;;;;;;;;;;21.21;69.97;97681.08;606949;233;64412;-73
2022/10/30 01:28:55;;;;;;;;;;;;;;;21.21;69.89;97676.52;607113;233;64109;-71
2022/10/30 01:31:27;;;;;;;;;;;;;;;21.21;70.15;97673.05;607173;233;64910;-72
2022/10/30 01:34:02;;;;;;;;;;;;;;;21.20;70.12;97672.25;607151;233;66677;-72
2022/10/30 01:36:42;;;;;;;;;;;;;;;21.21;70.10;97673.05;606345;233;45400;-72
2022/10/30 01:39:20;;;;;;;;;;;;;;;21.21;69.91;97673.05;607096;233;65573;-72
2022/10/30 01:41:48;;;;;;;;;;;;;;;21.21;70.72;97670.38;607179;233;64070;-72
2022/10/30 01:44:20;;;;;;;;;;;;;;;21.20;70.29;97671.45;607206;233;64156;-72
2022/10/30 01:46:55;;;;;;;;;;;;;;;21.19;70.36;97675.17;607191;233;64843;-72
2022/10/30 01:49:27;;;;;;;;;;;;;;;21.20;71.35;97674.13;596702;233;65326;-73
2022/10/30 01:51:59;;;;;;;;;;;;;;;21.19;70.63;97672.50;606328;233;64219;-72
2022/10/30 01:54:40;;;;;;;;;;;;;;;21.19;71.26;97664.48;607153;233;64870;-72
2022/10/30 01:57:12;;;;;;;;;;;;;;;21.17;69.65;97662.08;593430;233;64403;-72
2022/10/30 01:59:58;;;;;;;;;;;;;;;21.18;70.74;97657.53;607204;233;66800;-72
2022/10/30 02:02:26;;;;;;;;;;;;;;;21.16;70.95;97660.45;607235;233;62996;-72
2022/10/30 02:04:54;;;;;;;;;;;;;;;21.16;69.92;97654.30;607106;233;66986;-72
2022/10/30 02:07:22;;;;;;;;;;;;;;;21.17;70.86;97661.25;607186;233;66272;-71
2022/10/30 02:09:51;;;;;;;;;;;;;;;21.16;70.21;97654.30;607147;231;62440;-71
2022/10/30 02:12:18;;;;;;;;;;;;;;;21.16;70.56;97654.30;607134;233;66946;-71
2022/10/30 02:14:48;;;;;;;;;;;;;;;21.16;70.67;97662.31;607179;233;66833;-71
2022/10/30 02:17:16;;;;;;;;;;;;;;;21.16;70.28;97659.64;606634;233;65063;-72
2022/10/30 02:19:44;;;;;;;;;;;;;;;21.15;69.90;97666.87;606991;233;64339;-72
2022/10/30 02:22:11;;;;;;;;;;;;;;;21.16;69.57;97667.66;607147;233;64617;-72
2022/10/30 02:24:39;;;;;;;;;;;;;;;21.16;70.61;97659.64;607138;233;64819;-72
2022/10/30 02:27:07;;;;;;;;;;;;;;;21.16;70.71;97670.34;607196;233;67310;-72
2022/10/30 02:29:34;;;;;;;;;;;;;;;21.15;70.78;97664.19;607101;233;65387;-72
2022/10/30 02:32:02;;;;;;;;;;;;;;;21.17;70.46;97666.59;607127;233;62663;-72
2022/10/30 02:34:30;;;;;;;;;;;;;;;21.16;70.42;97670.34;607158;233;64116;-72
2022/10/30 02:36:57;;;;;;;;;;;;;;;21.15;70.58;97664.19;607139;233;66710;-72
2022/10/30 02:39:25;;;;;;;;;;;;;;;21.16;70.94;97664.99;607158;233;64861;-72
2022/10/30 02:41:52;;;;;;;;;;;;;;;21.15;70.61;97669.54;607123;233;67023;-72
2022/10/30 02:44:20;;;;;;;;;;;;;;;21.14;69.93;97664.44;607143;233;66667;-72
2022/10/30 02:46:48;;;;;;;;;;;;;;;21.14;70.34;97661.77;607149;233;64911;-72
2022/10/30 02:49:15;;;;;;;;;;;;;;;21.14;70.23;97657.22;606897;233;66709;-72
2022/10/30 02:51:43;;;;;;;;;;;;;;;21.14;69.91;97662.56;605211;234;66583;-72
2022/10/30 02:54:11;;;;;;;;;;;;;;;21.13;71.00;97660.97;605127;234;65734;-72
2022/10/30 02:56:42;;;;;;;;;;;;;;;21.14;70.86;97657.22;605150;234;66747;-72
2022/10/30 02:59:09;;;;;;;;;;;;;;;21.13;70.64;97652.95;605092;234;64630;-73
2022/10/30 03:01:37;;;;;;;;;;;;;;;21.13;70.70;97644.92;605148;234;62397;-73
2022/10/30 03:04:05;;;;;;;;;;;;;;;21.13;71.01;97646.80;605175;234;66769;-73
2022/10/30 03:06:32;;;;;;;;;;;;;;;21.12;71.17;97648.67;605143;234;66601;-73
2022/10/30 03:08:59;;;;;;;;;;;;;;;21.12;70.46;97647.88;605134;234;65185;-73
2022/10/30 03:11:27;;;;;;;;;;;;;;;21.13;70.96;97660.16;605124;234;64567;-73
2022/10/30 03:13:55;;;;;;;;;;;;;;;21.12;70.67;97658.56;605128;234;63960;-73
2022/10/30 03:16:23;;;;;;;;;;;;;;;21.12;70.44;97655.89;605195;234;63021;-73
2022/10/30 03:18:52;;;;;;;;;;;;;;;21.11;70.52;97667.63;605132;234;67669;-73
2022/10/30 03:21:20;;;;;;;;;;;;;;;21.11;70.71;97660.41;605045;234;66776;-73
2022/10/30 03:23:53;;;;;;;;;;;;;;;21.11;69.91;97662.28;605161;234;62926;-73
2022/10/30 03:26:18;;;;;;;;;;;;;;;21.11;70.21;97659.61;604899;234;64768;-73
2022/10/30 03:28:48;;;;;;;;;;;;;;;21.11;70.74;97648.91;604912;234;48141;-73
2022/10/30 03:31:16;;;;;;;;;;;;;;;21.09;70.11;97649.19;605203;234;65028;-73
2022/10/30 03:33:44;;;;;;;;;;;;;;;21.10;70.00;97650.79;605137;234;64700;-73
2022/10/30 03:36:13;;;;;;;;;;;;;;;21.09;70.37;97659.88;605140;234;64556;-73
2022/10/30 03:38:41;;;;;;;;;;;;;;;21.09;70.33;97654.53;605121;234;65237;-73
2022/10/30 03:41:10;;;;;;;;;;;;;;;21.10;70.25;97658.00;605109;234;44207;-73
2022/10/30 03:43:38;;;;;;;;;;;;;;;21.10;70.21;97658.80;605172;234;64641;-73
2022/10/30 03:46:05;;;;;;;;;;;;;;;21.09;70.66;97653.70;605165;234;64849;-73
2022/10/30 03:48:33;;;;;;;;;;;;;;;21.10;70.87;97655.33;605137;234;67080;-73
2022/10/30 03:51:01;;;;;;;;;;;;;;;21.08;69.94;97660.13;605064;234;65642;-73
2022/10/30 03:53:29;;;;;;;;;;;;;;;21.09;70.99;97656.38;605117;234;62854;-73
2022/10/30 03:55:58;;;;;;;;;;;;;;;21.09;71.08;97664.39;605166;234;66952;-73
2022/10/30 03:58:26;;;;;;;;;;;;;;;21.09;70.66;97661.72;605150;234;66683;-73
2022/10/30 04:00:57;;;;;;;;;;;;;;;21.08;70.62;97662.80;605101;234;42092;-73
2022/10/30 04:03:24;;;;;;;;;;;;;;;21.06;70.67;97658.52;605059;234;64564;-73
2022/10/30 04:05:53;;;;;;;;;;;;;;;21.08;70.98;97654.77;605128;232;66743;-73
2022/10/30 04:08:21;;;;;;;;;;;;;;;21.06;70.77;97661.19;605133;234;62770;-73
2022/10/30 04:10:49;;;;;;;;;;;;;;;21.05;70.62;97658.77;605168;234;67175;-73
2022/10/30 04:13:19;;;;;;;;;;;;;;;21.05;71.08;97648.88;605145;234;64305;-73
2022/10/30 04:15:49;;;;;;;;;;;;;;;21.04;70.40;97646.47;605165;234;41949;-73
2022/10/30 04:18:16;;;;;;;;;;;;;;;21.05;71.55;97646.20;605104;234;64501;-72
2022/10/30 04:20:45;;;;;;;;;;;;;;;21.05;71.09;97642.73;605114;234;67085;-72
2022/10/30 04:23:15;;;;;;;;;;;;;;;21.04;70.83;97636.58;605183;234;65567;-72
2022/10/30 04:25:42;;;;;;;;;;;;;;;21.04;71.09;97641.13;605134;234;67061;-72
2022/10/30 04:28:12;;;;;;;;;;;;;;;21.02;70.99;97638.70;605140;234;64622;-72
2022/10/30 04:30:41;;;;;;;;;;;;;;;21.03;70.97;97643.00;605094;234;64852;-72
2022/10/30 04:33:12;;;;;;;;;;;;;;;21.03;70.65;97639.50;605119;234;64625;-72
2022/10/30 04:35:40;;;;;;;;;;;;;;;21.03;71.82;97636.83;605205;234;66584;-73
2022/10/30 04:38:11;;;;;;;;;;;;;;;21.02;71.02;97633.36;605126;234;43829;-72
2022/10/30 04:40:40;;;;;;;;;;;;;;;21.02;71.61;97633.36;605141;234;64292;-72
2022/10/30 04:43:09;;;;;;;;;;;;;;;21.02;70.20;97637.90;605101;234;66837;-72
2022/10/30 04:45:37;;;;;;;;;;;;;;;21.02;71.02;97640.57;598712;234;66849;-72
2022/10/30 04:48:07;;;;;;;;;;;;;;;21.02;71.35;97637.90;605130;234;66878;-72
2022/10/30 04:50:35;;;;;;;;;;;;;;;21.01;71.45;97637.09;606420;233;66667;-73
2022/10/30 04:53:04;;;;;;;;;;;;;;;21.01;70.42;97639.77;607117;233;64916;-73
2022/10/30 04:55:32;;;;;;;;;;;;;;;21.01;71.28;97639.77;607166;233;66788;-72
2022/10/30 04:58:06;;;;;;;;;;;;;;;21.00;71.04;97635.47;607060;233;66666;-73
2022/10/30 05:00:32;;;;;;;;;;;;;;;21.00;71.20;97635.47;607042;233;44066;-73
2022/10/30 05:03:01;;;;;;;;;;;;;;;20.99;71.08;97633.87;606922;233;43277;-72
2022/10/30 05:05:29;;;;;;;;;;;;;;;20.99;70.36;97625.05;606915;233;66715;-72
2022/10/30 05:07:57;;;;;;;;;;;;;;;20.99;70.82;97628.52;607137;233;64959;-72
2022/10/30 05:10:24;;;;;;;;;;;;;;;20.98;71.12;97623.42;607134;233;64856;-72
2022/10/30 05:12:53;;;;;;;;;;;;;;;20.99;71.51;97630.39;607158;233;67060;-72
2022/10/30 05:15:21;;;;;;;;;;;;;;;20.98;71.00;97631.44;607041;233;62980;-73
2022/10/30 05:17:53;;;;;;;;;;;;;;;20.98;71.28;97628.77;607157;233;66801;-72
2022/10/30 05:20:21;;;;;;;;;;;;;;;20.97;71.15;97630.64;606657;233;65505;-72
2022/10/30 05:22:55;;;;;;;;;;;;;;;20.98;71.46;97628.77;597450;236;66513;-70
2022/10/30 05:25:23;;;;;;;;;;;;;;;20.96;68.79;97625.56;600844;236;66625;-70
2022/10/30 05:27:59;;;;;;;;;;;;;;;20.96;71.16;97629.04;601161;236;67257;-70
2022/10/30 05:30:29;;;;;;;;;;;;;;;20.97;71.58;97625.30;601229;236;65542;-70
2022/10/30 05:32:58;;;;;;;;;;;;;;;20.96;70.22;97629.04;600506;236;66923;-70
2022/10/30 05:35:26;;;;;;;;;;;;;;;20.96;71.71;97629.04;601178;236;64044;-70
2022/10/30 05:37:56;;;;;;;;;;;;;;;20.96;70.73;97621.02;601184;236;64964;-70
2022/10/30 05:40:25;;;;;;;;;;;;;;;20.96;71.62;97626.37;600212;236;46670;-70
2022/10/30 05:42:53;;;;;;;;;;;;;;;20.94;70.38;97619.67;601175;236;64549;-70
2022/10/30 05:45:21;;;;;;;;;;;;;;;20.95;70.80;97619.42;601215;236;64903;-70
2022/10/30 05:47:56;;;;;;;;;;;;;;;20.94;70.95;97622.34;601159;236;66772;-70
2022/10/30 05:50:25;;;;;;;;;;;;;;;20.94;70.99;97620.47;598115;236;66133;-71
2022/10/30 05:52:56;;;;;;;;;;;;;;;20.94;69.78;97628.48;599198;236;46176;-72
2022/10/30 05:55:26;;;;;;;;;;;;;;;20.92;69.81;97625.25;600047;235;64362;-72
2022/10/30 05:58:05;;;;;;;;;;;;;;;20.92;69.55;97619.91;599883;236;48157;-70
2022/10/30 06:00:35;;;;;;;;;;;;;;;20.92;70.18;97622.58;600154;236;65710;-72
2022/10/30 06:03:04;;;;;;;;;;;;;;;20.92;70.29;97617.23;600073;236;64011;-70
2022/10/30 06:05:33;;;;;;;;;;;;;;;20.92;69.67;97619.91;599998;236;66802;-70
2022/10/30 06:08:01;;;;;;;;;;;;;;;20.92;71.30;97611.89;600115;236;65622;-71
2022/10/30 06:10:29;;;;;;;;;;;;;;;20.92;70.62;97616.44;600072;236;67406;-71
2022/10/30 06:12:59;;;;;;;;;;;;;;;20.91;71.01;97618.31;597483;236;48034;-71
2022/10/30 06:15:35;;;;;;;;;;;;;;;20.90;70.32;97613.20;599640;236;45328;-71
2022/10/30 06:18:07;;;;;;;;;;;;;;;20.90;70.70;97613.20;600088;236;66248;-72
2022/10/30 06:20:40;;;;;;;;;;;;;;;20.90;71.02;97611.37;599489;236;47894;-72
2022/10/30 06:23:29;;;;;;;;;;;;;;;20.90;71.62;97607.86;599285;236;43907;-72
2022/10/30 06:25:58;;;;;;;;;;;;;;;20.90;70.92;97614.04;598666;236;48225;-72
2022/10/30 06:28:37;;;;;;;;;;;;;;;20.90;71.66;97619.38;599949;236;45431;-71
2022/10/30 06:31:05;;;;;;;;;;;;;;;20.90;71.26;97614.04;600128;236;65673;-70
2022/10/30 06:33:32;;;;;;;;;;;;;;;20.89;71.34;97607.06;600065;236;67693;-70
2022/10/30 06:36:00;;;;;;;;;;;;;;;20.90;71.82;97613.20;600077;236;64662;-73
2022/10/30 06:38:30;;;;;;;;;;;;;;;20.90;71.40;97607.86;600089;236;65485;-71
2022/10/30 06:40:59;;;;;;;;;;;;;;;20.90;70.73;97603.35;600107;236;67137;-71
2022/10/30 06:43:45;;;;;;;;;;;;;;;20.90;71.69;97605.20;600189;236;39072;-73
2022/10/30 06:46:14;;;;;;;;;;;;;;;20.90;71.42;97603.35;599650;236;47524;-72
2022/10/30 06:48:43;;;;;;;;;;;;;;;20.90;71.06;97597.18;600055;236;64155;-72
2022/10/30 06:51:12;;;;;;;;;;;;;;;20.90;71.25;97591.83;600379;236;66917;-72
2022/10/30 06:53:40;;;;;;;;;;;;;;;20.90;71.18;97594.50;600480;236;66055;-72
2022/10/30 06:56:25;;;;;;;;;;;;;;;20.90;71.94;97595.34;600554;236;41628;-72
2022/10/30 06:59:10;;;;;;;;;;;;;;;20.89;71.50;97585.69;599442;236;49107;-71
2022/10/30 07:01:45;;;;;;;;;;;;;;;20.89;70.84;97584.89;600545;236;44903;-71
2022/10/30 07:04:17;;;;;;;;;;;;;;;20.90;71.67;97589.99;600527;236;51872;-71
2022/10/30 07:06:45;;;;;;;;;;;;;;;20.90;71.46;97589.16;600508;236;66147;-71
2022/10/30 07:09:12;;;;;;;;;;;;;;;20.89;71.38;97590.23;600459;236;65310;-71
2022/10/30 07:11:44;;;;;;;;;;;;;;;20.88;71.53;97592.11;600476;236;64386;-71
2022/10/30 07:14:23;;;;;;;;;;;;;;;20.88;70.36;97589.44;600145;236;46595;-71
2022/10/30 07:16:57;;;;;;;;;;;;;;;20.89;70.53;97585.69;596773;236;46330;-73
2022/10/30 07:19:26;;;;;;;;;;;;;;;20.89;70.44;97590.23;600426;236;66609;-73
2022/10/30 07:21:55;;;;;;;;;;;;;;;20.89;70.01;97584.89;600478;236;67092;-72
2022/10/30 07:24:23;;;;;;;;;;;;;;;20.89;71.44;97585.69;600458;236;65061;-73
2022/10/30 07:26:52;;;;;;;;;;;;;;;20.89;70.96;97580.34;599283;236;49569;-71
2022/10/30 07:29:40;;;;;;;;;;;;;;;20.89;70.04;97582.22;600323;236;43602;-71
2022/10/30 07:32:11;;;;;;;;;;;;;;;20.89;71.20;97579.55;600081;236;47564;-71
2022/10/30 07:34:52;;;;;;;;;;;;;;;20.88;70.72;97578.75;599567;236;48331;-71
2022/10/30 07:37:29;;;;;;;;;;;;;;;20.87;70.80;97577.15;600234;236;44269;-71
2022/10/30 07:40:07;;;;;;;;;;;;;;;20.88;72.51;97581.42;600495;236;43540;-71
2022/10/30 07:42:39;;;;;;;;;;;;;;;20.87;70.67;97579.83;600207;236;49443;-71
2022/10/30 07:45:14;;;;;;;;;;;;;;;20.88;71.82;97583.30;599760;236;45983;-71
2022/10/30 07:47:59;;;;;;;;;;;;;;;20.86;71.35;97580.86;585970;242;46065;-71
2022/10/30 07:50:31;;;;;;;;;;;;;;;20.87;71.51;97576.32;595884;236;49250;-71
2022/10/30 07:52:59;;;;;;;;;;;;;;;20.86;71.28;97570.18;600067;236;66798;-71
2022/10/30 07:55:29;;;;;;;;;;;;;;;20.87;70.43;97573.65;600156;236;50453;-71
2022/10/30 07:58:04;;;;;;;;;;;;;;;20.86;71.51;97564.84;592644;236;46631;-71
2022/10/30 08:00:50;;;;;;;;;;;;;;;20.87;71.41;97565.64;600214;236;38145;-71
2022/10/30 08:03:19;;;;;;;;;;;;;;;20.87;71.71;97557.62;600020;236;42491;-71
2022/10/30 08:05:57;;;;;;;;;;;;;;;20.86;71.08;97556.02;599867;236;47506;-71
2022/10/30 08:08:35;;;;;;;;;;;;;;;20.86;71.01;97558.69;600154;236;63378;-71
2022/10/30 08:11:11;;;;;;;;;;;;;;;20.84;71.04;97550.92;599819;236;43527;-71
2022/10/30 08:13:38;;;;;;;;;;;;;;;20.84;71.16;97550.92;600035;236;64268;-71
2022/10/30 08:16:06;;;;;;;;;;;;;;;20.84;70.92;97541.06;600105;236;66416;-71
2022/10/30 08:18:34;;;;;;;;;;;;;;;20.85;71.11;97536.52;600065;236;64856;-71
2022/10/30 08:21:02;;;;;;;;;;;;;;;20.85;71.03;97536.52;600144;236;63924;-71
2022/10/30 08:23:29;;;;;;;;;;;;;;;20.84;71.58;97526.88;600089;236;66145;-71
2022/10/30 08:26:01;;;;;;;;;;;;;;;20.84;71.48;97526.88;600114;236;64892;-71
2022/10/30 08:28:28;;;;;;;;;;;;;;;20.84;72.16;97524.20;600022;236;66740;-71
2022/10/30 08:30:57;;;;;;;;;;;;;;;20.84;72.39;97524.20;600092;236;65581;-71
2022/10/30 08:33:27;;;;;;;;;;;;;;;20.85;71.78;97520.49;599498;236;43727;-71
2022/10/30 08:36:00;;;;;;;;;;;;;;;20.84;71.37;97526.88;600162;236;48864;-71
2022/10/30 08:38:28;;;;;;;;;;;;;;;20.84;71.49;97524.20;600081;236;66791;-71
2022/10/30 08:40:58;;;;;;;;;;;;;;;20.84;71.87;97521.54;586819;236;46422;-71
2022/10/30 08:43:26;;;;;;;;;;;;;;;20.83;72.75;97518.06;600078;236;66535;-71
2022/10/30 08:45:56;;;;;;;;;;;;;;;20.83;71.68;97518.06;600095;236;67248;-71
2022/10/30 08:48:24;;;;;;;;;;;;;;;20.84;73.27;97522.37;600161;236;62398;-71
2022/10/30 08:50:53;;;;;;;;;;;;;;;20.83;71.35;97511.92;600011;236;66322;-71
2022/10/30 08:53:23;;;;;;;;;;;;;;;20.82;71.33;97508.45;599996;236;43494;-71
2022/10/30 08:55:51;;;;;;;;;;;;;;;20.83;71.71;97506.58;600065;236;65652;-71
2022/10/30 08:58:21;;;;;;;;;;;;;;;20.83;71.84;97498.57;599701;236;47833;-71
2022/10/30 09:00:48;;;;;;;;;;;;;;;20.83;71.24;97495.89;600153;236;66348;-71
2022/10/30 09:03:18;;;;;;;;;;;;;;;20.82;71.36;97499.64;600156;236;47687;-69
2022/10/30 09:05:58;;;;;;;;;;;;;;;20.82;71.80;97499.64;579083;243;46418;-69
2022/10/30 09:08:43;;;;;;;;;;;;;;;20.82;71.05;97494.30;600196;236;41162;-69
2022/10/30 09:11:13;;;;;;;;;;;;;;;20.81;72.32;97481.98;599971;236;41989;-71
2022/10/30 09:13:41;;;;;;;;;;;;;;;20.81;71.54;97482.78;600138;236;64493;-71
2022/10/30 09:16:09;;;;;;;;;;;;;;;20.80;72.04;97486.53;600109;236;66764;-71
2022/10/30 09:18:37;;;;;;;;;;;;;;;20.80;72.11;97485.73;600101;236;65726;-71
2022/10/30 09:21:05;;;;;;;;;;;;;;;20.79;72.49;97478.79;600059;236;67101;-71
2022/10/30 09:23:34;;;;;;;;;;;;;;;20.80;71.05;97481.19;599953;236;44976;-71
2022/10/30 09:26:20;;;;;;;;;;;;;;;20.80;71.78;97475.84;600220;236;37074;-72
2022/10/30 09:28:49;;;;;;;;;;;;;;;20.80;71.73;97469.70;598598;236;47858;-69
2022/10/30 09:31:34;;;;;;;;;;;;;;;20.79;71.59;97470.78;592123;236;48125;-69
2022/10/30 09:34:03;;;;;;;;;;;;;;;20.81;72.52;97463.29;600125;236;62383;-69
2022/10/30 09:36:32;;;;;;;;;;;;;;;20.79;70.98;97460.89;599083;236;46063;-69
2022/10/30 09:39:00;;;;;;;;;;;;;;;20.79;71.10;97454.75;600067;236;66545;-70
2022/10/30 09:41:48;;;;;;;;;;;;;;;20.80;71.31;97453.67;600101;236;66098;-69
2022/10/30 09:44:23;;;;;;;;;;;;;;;20.80;71.64;97456.34;600106;236;64368;-69
2022/10/30 09:46:52;;;;;;;;;;;;;;;20.79;71.45;97442.20;600069;236;66867;-70
2022/10/30 09:49:21;;;;;;;;;;;;;;;20.79;71.21;97442.20;599882;236;65656;-70
2022/10/30 09:51:52;;;;;;;;;;;;;;;20.79;71.67;97444.86;600375;236;64406;-70
2022/10/30 09:54:21;;;;;;;;;;;;;;;20.79;70.98;97433.38;600506;236;66399;-70
2022/10/30 09:57:01;;;;;;;;;;;;;;;20.79;71.51;97428.04;600392;236;45253;-70
2022/10/30 09:59:42;;;;;;;;;;;;;;;20.78;72.89;97427.21;600410;236;64185;-70
2022/10/30 10:02:18;;;;;;;;;;;;;;;20.78;72.55;97419.20;600546;236;66093;-70
2022/10/30 10:04:50;;;;;;;;;;;;;;;20.77;70.92;97414.93;600579;236;65077;-70
2022/10/30 10:07:30;;;;;;;;;;;;;;;20.78;72.06;97407.72;599809;236;45864;-70
2022/10/30 10:10:06;;;;;;;;;;;;;;;20.77;72.19;97406.92;591854;236;47111;-71
2022/10/30 10:12:40;;;;;;;;;;;;;;;20.77;72.34;97406.12;599413;236;47357;-70
2022/10/30 10:15:12;;;;;;;;;;;;;;;20.77;72.97;97395.44;599507;236;64069;-70
2022/10/30 10:17:41;;;;;;;;;;;;;;;20.76;71.64;97396.48;600425;236;66120;-70
2022/10/30 10:20:10;;;;;;;;;;;;;;;20.75;71.41;97393.02;600545;236;63590;-70
2022/10/30 10:22:50;;;;;;;;;;;;;;;20.76;70.78;97393.81;600314;236;66239;-70
2022/10/30 10:25:19;;;;;;;;;;;;;;;20.77;71.83;97385.55;600531;236;64127;-70
2022/10/30 10:28:00;;;;;;;;;;;;;;;20.76;70.35;97385.80;600491;236;64907;-70
2022/10/30 10:30:38;;;;;;;;;;;;;;;20.76;71.08;97385.80;600218;236;66577;-69
2022/10/30 10:33:16;;;;;;;;;;;;;;;20.76;70.52;97377.78;593276;236;66490;-71
2022/10/30 10:35:58;;;;;;;;;;;;;;;20.76;70.99;97378.61;600065;236;62797;-71
2022/10/30 10:38:33;;;;;;;;;;;;;;;20.76;71.72;97383.12;600520;236;66568;-71
2022/10/30 10:41:02;;;;;;;;;;;;;;;20.75;72.07;97376.98;600525;236;65306;-71
2022/10/30 10:43:34;;;;;;;;;;;;;;;20.74;71.93;97363.91;600199;236;64905;-71
2022/10/30 10:46:09;;;;;;;;;;;;;;;20.75;71.62;97370.84;600512;236;66667;-71
2022/10/30 10:48:38;;;;;;;;;;;;;;;20.75;71.12;97370.84;600506;236;64423;-71
2022/10/30 10:51:22;;;;;;;;;;;;;;;20.75;71.27;97373.52;599821;236;64702;-71
2022/10/30 10:53:51;;;;;;;;;;;;;;;20.76;72.03;97367.10;600154;236;67065;-71
2022/10/30 10:56:20;;;;;;;;;;;;;;;20.74;70.98;97369.25;600149;236;66527;-71
2022/10/30 10:58:52;;;;;;;;;;;;;;;20.75;71.67;97368.17;600112;236;62966;-71
2022/10/30 11:01:21;;;;;;;;;;;;;;;20.74;70.99;97363.91;600106;236;64001;-71
2022/10/30 11:03:56;;;;;;;;;;;;;;;20.75;71.46;97362.83;599213;236;64492;-71
2022/10/30 11:06:31;;;;;;;;;;;;;;;20.74;71.07;97356.70;600090;236;62626;-71
2022/10/30 11:09:21;;;;;;;;;;;;;;;20.74;71.12;97358.56;600165;236;64245;-71
2022/10/30 11:11:49;;;;;;;;;;;;;;;20.74;71.39;97339.88;600172;236;66556;-71
2022/10/30 11:14:19;;;;;;;;;;;;;;;20.73;71.46;97347.05;600099;236;64856;-71
2022/10/30 11:17:06;;;;;;;;;;;;;;;20.74;71.64;97347.88;599891;236;64413;-71
2022/10/30 11:19:34;;;;;;;;;;;;;;;20.73;70.88;97335.58;600070;236;66727;-70
2022/10/30 11:22:02;;;;;;;;;;;;;;;20.72;70.62;97337.45;600101;236;64848;-71
2022/10/30 11:24:34;;;;;;;;;;;;;;;20.72;70.95;97333.98;600048;236;66734;-71
2022/10/30 11:27:22;;;;;;;;;;;;;;;20.73;71.94;97328.36;600138;236;64604;-71
2022/10/30 11:29:52;;;;;;;;;;;;;;;20.72;71.15;97321.42;600110;236;65132;-69
2022/10/30 11:32:21;;;;;;;;;;;;;;;20.73;71.39;97324.89;599828;236;67144;-69
2022/10/30 11:35:03;;;;;;;;;;;;;;;20.72;71.75;97321.42;600097;236;64358;-69
2022/10/30 11:37:32;;;;;;;;;;;;;;;20.73;71.70;97322.22;600061;236;63684;-69
2022/10/30 11:40:07;;;;;;;;;;;;;;;20.73;71.44;97322.22;600044;236;67001;-69
2022/10/30 11:42:35;;;;;;;;;;;;;;;20.72;71.03;97323.30;600049;236;66712;-69
2022/10/30 11:45:03;;;;;;;;;;;;;;;20.72;71.17;97317.95;600108;236;62991;-69
2022/10/30 11:47:38;;;;;;;;;;;;;;;20.72;71.69;97307.27;600106;236;64486;-69
2022/10/30 11:50:07;;;;;;;;;;;;;;;20.71;71.85;97300.34;600208;236;66772;-69
2022/10/30 11:52:39;;;;;;;;;;;;;;;20.71;70.84;97311.02;600432;236;65091;-69
2022/10/30 11:55:17;;;;;;;;;;;;;;;20.72;71.21;97307.27;600443;236;66559;-70
2022/10/30 11:57:46;;;;;;;;;;;;;;;20.71;70.80;97305.68;600519;236;64366;-70
2022/10/30 12:00:15;;;;;;;;;;;;;;;20.71;70.81;97306.47;600500;236;62887;-70
2022/10/30 12:02:44;;;;;;;;;;;;;;;20.71;71.33;97297.66;600355;236;64367;-70
2022/10/30 12:05:13;;;;;;;;;;;;;;;20.71;71.26;97295.00;600420;236;66625;-70
2022/10/30 12:07:41;;;;;;;;;;;;;;;20.71;71.71;97295.80;597790;236;64899;-70
2022/10/30 12:10:10;;;;;;;;;;;;;;;20.71;71.70;97295.00;600459;236;66698;-70
2022/10/30 12:12:41;;;;;;;;;;;;;;;20.70;71.33;97291.50;599884;236;66178;-70
2022/10/30 12:15:10;;;;;;;;;;;;;;;20.70;71.15;97290.70;600453;236;65376;-70
2022/10/30 12:17:38;;;;;;;;;;;;;;;20.70;71.08;97288.83;600418;236;66985;-70
2022/10/30 12:20:07;;;;;;;;;;;;;;;20.71;71.19;97289.66;600442;236;67762;-70
2022/10/30 12:22:35;;;;;;;;;;;;;;;20.69;70.92;97281.89;600440;236;65078;-70
2022/10/30 12:25:04;;;;;;;;;;;;;;;20.70;71.06;97286.16;600476;236;66899;-70
2022/10/30 12:27:33;;;;;;;;;;;;;;;20.69;70.64;97287.23;600468;236;66954;-70
2022/10/30 12:30:05;;;;;;;;;;;;;;;20.70;70.87;97288.83;600437;236;62948;-70
2022/10/30 12:32:34;;;;;;;;;;;;;;;20.70;70.82;97286.16;600430;236;64323;-70
2022/10/30 12:35:05;;;;;;;;;;;;;;;20.70;71.07;97282.69;600307;236;65927;-70
2022/10/30 12:37:35;;;;;;;;;;;;;;;20.69;71.08;97276.55;600366;236;64934;-70
2022/10/30 12:40:06;;;;;;;;;;;;;;;20.70;71.21;97277.34;600426;236;66595;-70
2022/10/30 12:42:38;;;;;;;;;;;;;;;20.69;71.72;97270.41;600463;236;64512;-70
2022/10/30 12:45:09;;;;;;;;;;;;;;;20.69;71.26;97260.52;600245;236;41652;-70
2022/10/30 12:47:39;;;;;;;;;;;;;;;20.69;71.54;97257.86;600320;236;67899;-72
2022/10/30 12:50:08;;;;;;;;;;;;;;;20.69;72.20;97265.07;600418;236;66603;-72
2022/10/30 12:52:37;;;;;;;;;;;;;;;20.68;71.41;97258.94;599512;236;65256;-72
2022/10/30 12:55:06;;;;;;;;;;;;;;;20.69;71.73;97259.73;600365;236;66773;-72
2022/10/30 12:57:35;;;;;;;;;;;;;;;20.67;71.68;97254.64;600212;236;66754;-73
2022/10/30 13:00:06;;;;;;;;;;;;;;;20.68;71.19;97253.59;600151;236;65686;-72
2022/10/30 13:02:53;;;;;;;;;;;;;;;20.69;71.89;97254.39;599765;236;66833;-72
2022/10/30 13:05:25;;;;;;;;;;;;;;;20.68;71.47;97258.11;600419;236;65594;-72
2022/10/30 13:08:03;;;;;;;;;;;;;;;20.67;71.27;97257.31;600465;236;65073;-73